| time (UTC) | temp F | wind direction | speed MPH | gust MPH | rain 1hr in | rain 24hr in | rain mn in | humidity % | barometer mb |
| 20260904041556 | 67 | 6 | 0.0 | 0.0 | 0.00 | 1.74 | 0.00 | 80 | 1015.1 |
| 20260904040053 | 68 | 6 | 0.0 | 0.0 | 0.00 | 1.74 | 0.00 | 80 | 1015.0 |
| 20260904034549 | 68 | 6 | 0.0 | 0.0 | 0.00 | 2.23 | 1.74 | 80 | 1014.8 |
| 20260904033045 | 68 | 6 | 0.0 | 1.0 | 0.00 | 2.23 | 1.74 | 80 | 1014.8 |
| 20260904031544 | 68 | 6 | 0.0 | 1.0 | 0.00 | 2.23 | 1.74 | 80 | 1014.7 |
| 20260904030041 | 68 | 6 | 0.0 | 0.0 | 0.00 | 2.23 | 1.74 | 80 | 1014.5 |
| 20260904024539 | 69 | 6 | 0.0 | 0.0 | 0.00 | 2.24 | 1.74 | 80 | 1014.5 |
| 20260904023038 | 69 | 6 | 0.0 | 1.0 | 0.00 | 2.24 | 1.74 | 80 | 1014.5 |
| 20260904021538 | 69 | 6 | 0.0 | 1.0 | 0.00 | 2.24 | 1.74 | 79 | 1014.6 |
| 20260904020033 | 69 | 6 | 0.0 | 1.0 | 0.00 | 2.24 | 1.74 | 79 | 1014.7 |
| 20260904014534 | 70 | 322 | 0.0 | 1.0 | 0.00 | 2.24 | 1.74 | 79 | 1014.7 |
| 20260904013030 | 70 | 11 | 1.0 | 3.0 | 0.00 | 2.24 | 1.74 | 79 | 1014.6 |
| 20260904011534 | 70 | 13 | 0.0 | 2.0 | 0.00 | 2.24 | 1.74 | 79 | 1014.3 |
| 20260904010038 | 70 | 263 | 0.0 | 1.0 | 0.00 | 2.24 | 1.74 | 79 | 1014.4 |
| 20260904004524 | 70 | 13 | 0.0 | 1.0 | 0.00 | 2.24 | 1.74 | 79 | 1014.0 |
| 20260904003025 | 70 | 13 | 0.0 | 1.0 | 0.00 | 2.24 | 1.74 | 79 | 1013.7 |
| 20260904001520 | 70 | 147 | 0.0 | 2.0 | 0.00 | 2.24 | 1.74 | 79 | 1013.3 |
| 20260904000024 | 70 | 152 | 1.0 | 3.0 | 0.00 | 2.24 | 1.74 | 79 | 1013.1 |
| 20260903234515 | 71 | 198 | 1.0 | 4.0 | 0.00 | 2.24 | 1.74 | 79 | 1013.4 |
| 20260903233012 | 71 | 157 | 0.0 | 3.0 | 0.00 | 2.24 | 1.74 | 79 | 1013.3 |
| 20260903231511 | 71 | 229 | 0.0 | 1.0 | 0.00 | 2.24 | 1.74 | 79 | 1013.2 |
| 20260903230010 | 71 | 190 | 0.0 | 1.0 | 0.00 | 2.24 | 1.74 | 79 | 1012.9 |
| 20260903224507 | 71 | 153 | 1.0 | 2.0 | 0.00 | 2.24 | 1.74 | 79 | 1013.3 |
| 20260903223009 | 71 | 200 | 0.0 | 0.0 | 0.00 | 2.24 | 1.74 | 79 | 1013.6 |
| 20260903221504 | 70 | 197 | 0.0 | 2.0 | 0.00 | 2.24 | 1.74 | 79 | 1013.9 |
| 20260903220002 | 70 | 196 | 1.0 | 2.0 | 0.00 | 2.24 | 1.74 | 79 | 1014.4 |
| 20260903214600 | 70 | 210 | 0.0 | 5.0 | 0.01 | 2.24 | 1.74 | 78 | 1014.7 |
| 20260903213102 | 70 | 183 | 1.0 | 3.0 | 0.04 | 2.24 | 1.74 | 78 | 1014.4 |
| 20260903211557 | 70 | 350 | 0.0 | 1.0 | 0.75 | 2.24 | 1.74 | 78 | 1014.6 |
| 20260903210108 | 69 | 285 | 0.0 | 2.0 | 0.95 | 2.24 | 1.74 | 78 | 1014.7 |
| 20260903204616 | 70 | 319 | 1.0 | 8.0 | 0.94 | 2.23 | 1.73 | 78 | 1014.5 |
| 20260903203051 | 70 | 69 | 1.0 | 10.0 | 0.91 | 2.20 | 1.70 | 78 | 1014.1 |
| 20260903201551 | 72 | 36 | 5.0 | 11.0 | 0.15 | 1.44 | 0.94 | 79 | 1015.4 |
| 20260903200053 | 73 | 18 | 1.0 | 7.0 | 0.00 | 1.29 | 0.79 | 79 | 1013.4 |
| 20260903194543 | 73 | 19 | 0.0 | 0.0 | 0.00 | 1.29 | 0.79 | 78 | 1011.7 |
| 20260903193040 | 73 | 19 | 0.0 | 0.0 | 0.00 | 1.29 | 0.79 | 78 | 1012.5 |
| 20260903191537 | 74 | 162 | 0.0 | 0.0 | 0.00 | 1.29 | 0.79 | 78 | 1012.5 |
| 20260903190036 | 75 | 206 | 0.0 | 0.0 | 0.00 | 1.29 | 0.79 | 78 | 1012.9 |
| 20260903184532 | 76 | 288 | 0.0 | 1.0 | 0.00 | 1.29 | 0.79 | 78 | 1012.7 |
| 20260903183030 | 76 | 219 | 0.0 | 1.0 | 0.00 | 1.29 | 0.79 | 78 | 1013.1 |
| 20260903181528 | 76 | 105 | 1.0 | 3.0 | 0.00 | 1.29 | 0.79 | 78 | 1012.9 |
| 20260903180034 | 75 | 152 | 0.0 | 1.0 | 0.05 | 1.29 | 0.79 | 78 | 1012.6 |
| 20260903174524 | 73 | 198 | 0.0 | 3.0 | 0.19 | 1.29 | 0.79 | 78 | 1012.6 |
| 20260903173021 | 71 | 169 | 0.0 | 3.0 | 0.21 | 1.29 | 0.79 | 77 | 1012.5 |
| 20260903171520 | 70 | 163 | 0.0 | 0.0 | 0.22 | 1.29 | 0.79 | 77 | 1012.8 |
| 20260903170022 | 69 | 91 | 0.0 | 4.0 | 0.17 | 1.24 | 0.74 | 77 | 1013.5 |
| 20260903164516 | 69 | 287 | 0.0 | 0.0 | 0.18 | 1.10 | 0.60 | 77 | 1013.8 |
| 20260903163014 | 69 | 200 | 0.0 | 3.0 | 0.16 | 1.08 | 0.57 | 77 | 1014.7 |
| 20260903161511 | 70 | 345 | 2.0 | 6.0 | 0.15 | 1.07 | 0.56 | 77 | 1014.6 |
| 20260903160023 | 72 | 278 | 3.0 | 17.0 | 0.15 | 1.07 | 0.56 | 77 | 1015.8 |
| 20260903154504 | 80 | 263 | 0.0 | 0.0 | 0.00 | 0.92 | 0.42 | 78 | 1014.9 |
| 20260903153100 | 81 | 341 | 0.0 | 1.0 | 0.00 | 0.92 | 0.42 | 78 | 1014.4 |
| 20260903151559 | 81 | 264 | 0.0 | 1.0 | 0.00 | 0.92 | 0.42 | 77 | 1013.6 |
| 20260903150106 | 82 | 155 | 0.0 | 0.0 | 0.00 | 0.92 | 0.42 | 77 | 1013.1 |
| 20260903144559 | 83 | 309 | 0.0 | 2.0 | 0.00 | 0.92 | 0.42 | 77 | 1013.1 |
| 20260903143049 | 83 | 337 | 0.0 | 0.0 | 0.00 | 0.92 | 0.42 | 77 | 1013.3 |
| 20260903141544 | 80 | 236 | 0.0 | 0.0 | 0.00 | 0.92 | 0.42 | 76 | 1013.1 |
| 20260903140038 | 78 | 146 | 0.0 | 0.0 | 0.00 | 0.92 | 0.42 | 76 | 1013.0 |
| 20260903134533 | 76 | 297 | 0.0 | 0.0 | 0.00 | 0.92 | 0.42 | 76 | 1013.2 |
| 20260903133027 | 75 | 341 | 0.0 | 0.0 | 0.00 | 0.92 | 0.42 | 75 | 1013.4 |
| 20260903131521 | 74 | 132 | 0.0 | 2.0 | 0.00 | 0.92 | 0.42 | 75 | 1013.3 |
| 20260903130017 | 73 | 243 | 0.0 | 2.0 | 0.00 | 0.92 | 0.42 | 75 | 1013.4 |
| 20260903124613 | 72 | 224 | 0.0 | 1.0 | 0.00 | 0.92 | 0.42 | 74 | 1013.6 |
| 20260903123010 | 72 | 229 | 0.0 | 0.0 | 0.00 | 0.92 | 0.42 | 74 | 1013.7 |
| 20260903121507 | 71 | 229 | 0.0 | 0.0 | 0.00 | 0.92 | 0.42 | 74 | 1013.8 |
| 20260903120005 | 70 | 229 | 0.0 | 0.0 | 0.00 | 0.92 | 0.42 | 74 | 1013.7 |
| 20260903114503 | 69 | 229 | 0.0 | 0.0 | 0.00 | 0.92 | 0.42 | 74 | 1013.5 |
| 20260903113100 | 69 | 229 | 0.0 | 0.0 | 0.00 | 0.92 | 0.42 | 73 | 1013.4 |
| 20260903111558 | 69 | 229 | 0.0 | 0.0 | 0.00 | 0.92 | 0.42 | 73 | 1013.5 |
| 20260903110055 | 69 | 229 | 0.0 | 0.0 | 0.00 | 0.92 | 0.42 | 73 | 1013.3 |
| 20260903104553 | 69 | 229 | 0.0 | 0.0 | 0.00 | 0.92 | 0.42 | 73 | 1013.2 |
| 20260903103050 | 69 | 229 | 0.0 | 0.0 | 0.00 | 0.92 | 0.42 | 73 | 1013.1 |
| 20260903101553 | 70 | 229 | 0.0 | 0.0 | 0.00 | 0.92 | 0.42 | 73 | 1013.0 |
| 20260903100047 | 69 | 229 | 0.0 | 0.0 | 0.00 | 0.92 | 0.42 | 73 | 1013.1 |
| 20260903094544 | 69 | 229 | 0.0 | 0.0 | 0.00 | 0.92 | 0.42 | 73 | 1012.9 |
| 20260903093056 | 69 | 229 | 0.0 | 1.0 | 0.00 | 0.92 | 0.42 | 73 | 1012.9 |
| 20260903091537 | 69 | 194 | 0.0 | 0.0 | 0.00 | 0.92 | 0.42 | 72 | 1012.7 |
| 20260903090037 | 69 | 232 | 0.0 | 2.0 | 0.00 | 0.92 | 0.42 | 72 | 1012.7 |
| 20260903084536 | 70 | 146 | 0.0 | 1.0 | 0.04 | 0.92 | 0.42 | 72 | 1012.5 |
| 20260903083032 | 70 | 176 | 0.0 | 1.0 | 0.08 | 0.92 | 0.42 | 72 | 1012.6 |
| 20260903081532 | 70 | 290 | 0.0 | 1.0 | 0.08 | 0.92 | 0.42 | 72 | 1012.5 |
| 20260903080032 | 70 | 298 | 0.0 | 1.0 | 0.15 | 0.92 | 0.42 | 72 | 1012.4 |
| 20260903074525 | 70 | 183 | 0.0 | 3.0 | 0.10 | 0.87 | 0.37 | 72 | 1012.7 |
| 20260903073030 | 70 | 191 | 1.0 | 2.0 | 0.28 | 0.84 | 0.34 | 72 | 1012.6 |
| 20260903071532 | 70 | 221 | 0.0 | 1.0 | 0.28 | 0.84 | 0.34 | 72 | 1012.1 |
| 20260903070017 | 69 | 162 | 0.0 | 3.0 | 0.22 | 0.77 | 0.27 | 72 | 1012.5 |
| 20260903064514 | 69 | 181 | 1.0 | 6.0 | 0.22 | 0.77 | 0.27 | 72 | 1012.8 |
| 20260903063008 | 72 | 343 | 2.0 | 4.0 | 0.01 | 0.56 | 0.06 | 72 | 1012.6 |
| 20260903061508 | 71 | 248 | 0.0 | 0.0 | 0.00 | 0.55 | 0.05 | 72 | 1012.2 |
| 20260903060008 | 71 | 247 | 0.0 | 0.0 | 0.05 | 0.55 | 0.05 | 72 | 1012.2 |
| 20260903054602 | 71 | 247 | 0.0 | 0.0 | 0.05 | 0.55 | 0.05 | 72 | 1012.4 |
| 20260903053053 | 71 | 257 | 0.0 | 0.0 | 0.05 | 0.55 | 0.05 | 72 | 1012.5 |
| 20260903051550 | 71 | 6 | 0.0 | 2.0 | 0.05 | 0.55 | 0.05 | 72 | 1012.7 |
| 20260903050046 | 71 | 290 | 0.0 | 0.0 | 0.00 | 0.50 | 0.00 | 72 | 1012.8 |
| 20260903044548 | 71 | 345 | 0.0 | 2.0 | 0.01 | 0.50 | 0.00 | 72 | 1012.8 |
| 20260903043041 | 71 | 194 | 0.0 | 0.0 | 0.09 | 0.50 | 0.00 | 72 | 1012.9 |